createdAt,value
2023-12-18T00:01:15.983Z,1189.78
2023-12-18T00:03:42.967Z,1211.40
2023-12-18T00:06:09.926Z,1211.60
2023-12-18T00:08:36.777Z,1207.15
2023-12-18T00:11:03.659Z,1213.60
2023-12-18T00:13:30.657Z,1152.55
2023-12-18T00:15:59.111Z,1162.88
2023-12-18T00:18:27.048Z,1193.47
2023-12-18T00:20:53.924Z,1207.68
2023-12-18T00:23:20.882Z,1205.63
2023-12-18T00:25:47.716Z,1204.30
2023-12-18T00:28:14.551Z,1202.73
2023-12-18T00:30:41.559Z,1178.38
2023-12-18T00:33:09.480Z,1147.23
2023-12-18T00:35:36.411Z,1186.47
2023-12-18T00:38:03.321Z,1196.20
2023-12-18T00:40:30.204Z,1204.75
2023-12-18T00:42:57.039Z,1136.78
2023-12-18T00:45:25.035Z,1126.28
2023-12-18T00:47:52.694Z,1127.50
2023-12-18T00:50:19.642Z,796.08
2023-12-18T00:52:46.693Z,757.25
2023-12-18T00:55:13.504Z,859.77
2023-12-18T00:57:40.549Z,1050.10
2023-12-18T01:00:08.348Z,1171.18
2023-12-18T01:02:35.227Z,1154.38
2023-12-18T01:05:02.169Z,1151.82
2023-12-18T01:07:31.818Z,1209.32
2023-12-18T01:10:01.495Z,1115.10
2023-12-18T01:12:28.487Z,1145.35
2023-12-18T01:14:55.614Z,1117.87
2023-12-18T01:17:32.541Z,1107.70
2023-12-18T01:20:04.031Z,1100.40
2023-12-18T01:22:30.937Z,1126.47
2023-12-18T01:24:58.629Z,1128.82
2023-12-18T01:27:25.878Z,1130.05
2023-12-18T01:29:52.775Z,1145.72
2023-12-18T01:32:19.600Z,1137.78
2023-12-18T01:34:46.417Z,1132.78
2023-12-18T01:37:14.107Z,1126.38
2023-12-18T01:39:40.949Z,1149.00
2023-12-18T01:42:07.913Z,1019.25
2023-12-18T01:44:34.816Z,964.30
2023-12-18T01:47:02.438Z,1105.28
2023-12-18T01:49:29.490Z,820.97
2023-12-18T01:51:56.527Z,590.35
2023-12-18T01:54:23.743Z,1124.63
2023-12-18T01:56:53.086Z,819.73
2023-12-18T01:59:22.831Z,884.03
2023-12-18T02:01:50.593Z,842.47
2023-12-18T02:04:18.229Z,920.42
2023-12-18T02:06:47.395Z,789.92
2023-12-18T02:09:14.902Z,754.20
2023-12-18T02:11:45.112Z,1054.85
2023-12-18T02:14:12.968Z,1099.63
2023-12-18T02:16:39.789Z,1094.20
2023-12-18T02:19:21.284Z,1109.45
2023-12-18T02:21:48.230Z,979.13
2023-12-18T02:24:15.126Z,911.17
2023-12-18T02:26:42.189Z,971.35
2023-12-18T02:29:09.849Z,941.00
2023-12-18T02:31:37.726Z,973.13
2023-12-18T02:34:05.970Z,939.72
2023-12-18T02:36:33.174Z,932.35
2023-12-18T02:38:59.949Z,842.78
2023-12-18T02:41:27.781Z,872.42
2023-12-18T02:43:54.665Z,881.30
2023-12-18T02:46:21.496Z,1035.53
2023-12-18T02:48:48.496Z,998.93
2023-12-18T02:51:15.455Z,879.70
2023-12-18T02:53:42.389Z,998.65
2023-12-18T02:56:09.263Z,1141.85
2023-12-18T02:58:36.180Z,1139.47
2023-12-18T03:01:03.437Z,1147.38
2023-12-18T03:03:30.450Z,1145.65
2023-12-18T03:05:58.312Z,1148.50
2023-12-18T03:08:25.173Z,1138.53
2023-12-18T03:10:53.380Z,1156.85
2023-12-18T03:13:20.273Z,1129.80
2023-12-18T03:15:47.236Z,1122.18
2023-12-18T03:18:14.162Z,1083.68
2023-12-18T03:20:41.094Z,1022.20
2023-12-18T03:23:07.949Z,1060.15
2023-12-18T03:25:34.792Z,935.55
2023-12-18T03:28:01.650Z,1089.15
2023-12-18T03:30:28.563Z,1101.60
2023-12-18T03:32:56.759Z,1121.93
2023-12-18T03:35:23.745Z,1079.28
2023-12-18T03:37:50.618Z,1098.70
2023-12-18T03:40:18.385Z,1121.95
2023-12-18T03:42:45.299Z,1134.57
2023-12-18T03:45:12.482Z,1132.45
2023-12-18T03:47:39.526Z,1133.72
2023-12-18T03:50:08.086Z,1150.95
2023-12-18T03:52:34.959Z,1158.88
2023-12-18T03:55:02.670Z,1066.85
2023-12-18T03:57:29.608Z,1101.25
2023-12-18T03:59:58.629Z,1101.40
2023-12-18T04:02:26.757Z,1077.33
2023-12-18T04:04:54.019Z,1096.47
2023-12-18T04:07:22.055Z,1119.82
2023-12-18T04:09:50.044Z,1152.43
2023-12-18T04:12:17.724Z,1121.13
2023-12-18T04:14:44.760Z,1126.97
2023-12-18T04:17:11.669Z,1140.22
2023-12-18T04:19:38.611Z,1141.40
2023-12-18T04:22:05.570Z,1158.15
2023-12-18T04:24:32.512Z,1147.03
2023-12-18T04:26:59.361Z,1147.60
2023-12-18T04:29:27.422Z,1152.30
2023-12-18T04:31:54.316Z,1161.38
